^^
Datos históricos de la estación: Murcia-Puente Tocinos
Diario Informe para Mayo 25, 2019 Unidades:  Ingés    Métrico   Ambas
Diario Semanal Mensual Anual
  Máxima: Mínima: Promedio:
Temperatura: 68.2 °F 57 °F 62.6 °F
Punto de rocio: 41.7 °F 39.2 °F 40.5 °F
Humedad: 53.8% 36% 45%
Velocidad viento: 16.8mph 2.4mph 8.7mph
Racha viento: 30mph - -
Viento- - Oeste
Presión: 30 in 29.9 in -
Precipitación: 0 in    
 
 
Tabla de datos para Mayo 25, 2019
Hora Temperatura Punto de rocio Presión Viento Velocidad viento Racha viento Humedad Intensidad lluvia(por hora) Nubes
00:04 60.1 °F 40.8 °F 29.9 in Oeste 5.2 mph 6 mph 49.1% 0 in
00:09 59.9 °F 41 °F 29.9 in Oeste 4.5 mph 8.7 mph 49.7% 0 in
00:14 60.1 °F 40.8 °F 29.9 in ONO 4 mph 9 mph 49% 0 in
00:19 60.3 °F 40.6 °F 29.9 in Oeste 4.7 mph 8.1 mph 48.1% 0 in
00:24 60.4 °F 40.6 °F 29.9 in Oeste 5.2 mph 11.2 mph 48% 0 in
00:29 60.4 °F 40.6 °F 29.9 in Oeste 5.8 mph 13 mph 48% 0 in
00:34 60.3 °F 40.5 °F 29.9 in ONO 6.2 mph 15.6 mph 48% 0 in
00:39 60.3 °F 40.5 °F 29.9 in ONO 7 mph 16.1 mph 48% 0 in
00:44 60.6 °F 40.5 °F 29.9 in NO 7.6 mph 16 mph 47.3% 0 in
00:49 60.4 °F 40.3 °F 29.9 in ONO 7.9 mph 13.5 mph 47% 0 in
00:54 60.4 °F 40.3 °F 29.9 in ONO 8.1 mph 14 mph 47% 0 in
00:59 60.4 °F 40.3 °F 29.9 in NO 7.6 mph 14 mph 47.5% 0 in
01:04 60.1 °F 40.3 °F 29.9 in NO 7.4 mph 13 mph 48% 0 in
01:09 59.7 °F 40.5 °F 29.9 in ONO 7.1 mph 13 mph 48.7% 0 in
01:14 59.7 °F 40.5 °F 29.9 in ONO 6.9 mph 10.4 mph 49% 0 in
01:19 59.4 °F 40.3 °F 29.9 in ONO 7.3 mph 11.8 mph 49% 0 in
01:24 59.5 °F 40.3 °F 29.9 in ONO 7.6 mph 14.7 mph 49% 0 in
01:29 59.5 °F 40.3 °F 29.9 in ONO 8.9 mph 16.1 mph 49% 0 in
01:34 59.5 °F 40.3 °F 29.9 in ONO 10 mph 16 mph 49% 0 in
01:39 59.9 °F 40.3 °F 29.9 in ONO 10.1 mph 19.7 mph 48.1% 0 in
01:44 60.4 °F 40.1 °F 29.9 in ONO 10.2 mph 20 mph 47% 0 in
01:49 60.6 °F 40.3 °F 29.9 in ONO 10.7 mph 18.1 mph 47% 0 in
01:54 60.8 °F 40.3 °F 29.9 in ONO 11.2 mph 18 mph 47% 0 in
01:59 60.6 °F 40.3 °F 29.9 in ONO 10.5 mph 16 mph 47% 0 in
02:04 60.6 °F 40.3 °F 29.9 in ONO 10 mph 15.6 mph 47% 0 in
02:09 60.6 °F 40.3 °F 29.9 in ONO 9.3 mph 16.1 mph 47% 0 in
02:14 61 °F 40.5 °F 29.9 in ONO 8.7 mph 16.1 mph 47% 0 in
02:19 60.6 °F 40.3 °F 29.9 in ONO 9 mph 14 mph 47% 0 in
02:24 60.4 °F 40.5 °F 29.9 in ONO 9.2 mph 16.1 mph 47.8% 0 in
02:29 60.1 °F 40.3 °F 29.9 in ONO 8.6 mph 16 mph 48% 0 in
02:34 59.9 °F 40.5 °F 29.9 in ONO 8.1 mph 15 mph 48.6% 0 in
02:39 59.7 °F 40.5 °F 29.9 in ONO 8.3 mph 17.5 mph 49% 0 in
02:44 59.7 °F 40.5 °F 29.9 in ONO 8.5 mph 17.3 mph 49% 0 in
02:49 59.5 °F 40.3 °F 29.9 in ONO 8.3 mph 14 mph 49% 0 in
02:54 59.4 °F 40.5 °F 29.9 in Oeste 8.1 mph 13 mph 49.7% 0 in
02:59 59.2 °F 40.5 °F 29.9 in OSO 6.3 mph 13 mph 50% 0 in
03:04 59 °F 40.3 °F 29.9 in SO 5.2 mph 9 mph 50% 0 in
03:09 58.8 °F 40.3 °F 29.9 in SE 3.7 mph 6 mph 50.2% 0 in
03:14 58.3 °F 40.5 °F 29.9 in SSE 2.4 mph 6 mph 51.4% 0 in
03:19 57.6 °F 40.5 °F 29.9 in SSE 3 mph 6.9 mph 52.6% 0 in
03:24 57.4 °F 40.3 °F 29.9 in SSE 3.6 mph 7 mph 53% 0 in
03:29 57 °F 40.1 °F 29.9 in SSE 4 mph 8.1 mph 53.1% 0 in
03:34 57.2 °F 40.3 °F 29.9 in SSO 4.3 mph 8 mph 53% 0 in
03:39 57 °F 40.3 °F 29.9 in SSO 4.8 mph 8.1 mph 53.4% 0 in
03:44 57.4 °F 40.3 °F 29.9 in Sur 5.2 mph 8 mph 53% 0 in
03:49 57.2 °F 40.3 °F 29.9 in Sur 4.7 mph 7.4 mph 53% 0 in
03:54 57 °F 40.5 °F 29.9 in Sur 4.3 mph 7 mph 53.8% 0 in
03:59 57.2 °F 40.6 °F 29.9 in SSO 4.5 mph 6.2 mph 53.8% 0 in
04:04 57.6 °F 40.5 °F 29.9 in Oeste 4.7 mph 10.4 mph 53% 0 in
04:09 57.7 °F 40.6 °F 29.9 in Oeste 5 mph 13.7 mph 53% 0 in
04:14 57.7 °F 40.8 °F 29.9 in Oeste 5.2 mph 14 mph 53% 0 in
04:19 57.9 °F 40.8 °F 29.9 in Oeste 5.8 mph 14 mph 53% 0 in
04:24 57.9 °F 40.8 °F 29.9 in Oeste 6.2 mph 14 mph 53% 0 in
04:29 57.7 °F 40.6 °F 29.9 in ONO 6.2 mph 10.7 mph 53% 0 in
04:34 57.7 °F 40.6 °F 29.9 in ONO 6.2 mph 13.8 mph 53% 0 in
04:39 57.9 °F 40.8 °F 29.9 in ONO 6.8 mph 16.1 mph 53% 0 in
04:44 57.9 °F 40.6 °F 29.9 in Oeste 7.4 mph 16 mph 52.5% 0 in
04:49 57.9 °F 40.8 °F 29.9 in Oeste 6.8 mph 12 mph 53% 0 in
04:54 57.9 °F 40.8 °F 29.9 in Oeste 6.4 mph 10.7 mph 53% 0 in
04:59 57.9 °F 40.8 °F 29.9 in Oeste 5.8 mph 17.3 mph 53% 0 in
05:04 58.1 °F 40.6 °F 29.9 in OSO 5.4 mph 17 mph 52% 0 in
05:09 58.1 °F 40.8 °F 29.9 in SO 5.4 mph 12 mph 52.6% 0 in
05:14 57.9 °F 40.8 °F 29.9 in SO 5.4 mph 7 mph 52.7% 0 in
05:19 58.3 °F 40.6 °F 29.9 in OSO 4.6 mph 8.5 mph 52% 0 in
05:24 58.3 °F 40.6 °F 29.9 in SO 4 mph 9 mph 52% 0 in
05:29 58.5 °F 40.8 °F 29.9 in SO 3.4 mph 7 mph 52% 0 in
05:34 58.5 °F 40.8 °F 29.9 in SO 2.9 mph 9.2 mph 51.8% 0 in
05:39 58.5 °F 40.8 °F 29.9 in SE 3.6 mph 9 mph 51.8% 0 in
05:44 58.5 °F 40.8 °F 29.9 in Sur 4.3 mph 7.6 mph 52% 0 in
05:49 58.5 °F 40.8 °F 29.9 in Sur 4 mph 9.2 mph 52% 0 in
05:54 58.5 °F 40.6 °F 29.9 in SSE 3.6 mph 11.4 mph 51.2% 0 in
05:59 58.8 °F 40.5 °F 29.9 in SSO 4.7 mph 11 mph 50.3% 0 in
06:04 59 °F 40.5 °F 29.9 in SO 5.4 mph 10.4 mph 50% 0 in
06:09 59 °F 40.5 °F 29.9 in Oeste 5.3 mph 11.5 mph 50% 0 in
06:14 59 °F 40.5 °F 29.9 in Oeste 5.2 mph 20.8 mph 50% 0 in
06:19 59.4 °F 40.5 °F 29.9 in Oeste 7 mph 21 mph 49.7% 0 in
06:24 59.2 °F 40.5 °F 29.9 in Oeste 8.5 mph 15.6 mph 50% 0 in
06:29 59 °F 40.5 °F 29.9 in Oeste 7.3 mph 16 mph 50% 0 in
06:34 59 °F 40.3 °F 29.9 in Oeste 6.4 mph 16.1 mph 50% 0 in
06:39 58.8 °F 40.3 °F 29.9 in Oeste 7.5 mph 16 mph 50% 0 in
06:44 58.8 °F 40.3 °F 29.9 in Oeste 8.5 mph 13 mph 50% 0 in
06:49 59 °F 40.3 °F 29.9 in Oeste 8 mph 16.1 mph 50% 0 in
06:54 59.2 °F 40.5 °F 29.9 in Oeste 7.4 mph 16.1 mph 50% 0 in
06:59 59.4 °F 40.6 °F 29.9 in Oeste 7.8 mph 15.2 mph 50% 0 in
07:04 59.4 °F 40.6 °F 29.9 in Oeste 8.1 mph 17 mph 50% 0 in
07:09 59.4 °F 40.6 °F 29.9 in ONO 8.1 mph 17 mph 50% 0 in
07:14 59.2 °F 40.6 °F 29.9 in ONO 8.1 mph 14 mph 50.5% 0 in
07:19 59 °F 40.8 °F 29.9 in Oeste 8.1 mph 16.3 mph 51% 0 in
07:24 58.8 °F 40.8 °F 29.9 in ONO 8.1 mph 16 mph 51% 0 in
07:29 58.8 °F 40.6 °F 29.9 in ONO 9 mph 18.4 mph 51% 0 in
07:34 59 °F 40.8 °F 29.9 in Oeste 9.7 mph 19.2 mph 51% 0 in
07:39 59.2 °F 41 °F 29.9 in ONO 10.4 mph 23.5 mph 51% 0 in
07:44 59 °F 40.8 °F 29.9 in ONO 11.2 mph 23 mph 51% 0 in
07:49 59 °F 40.8 °F 29.9 in ONO 10.9 mph 23 mph 51% 0 in
07:54 58.8 °F 40.6 °F 29.9 in ONO 10.7 mph 20.7 mph 51% 0 in
07:59 59 °F 41 °F 29.9 in ONO 11.1 mph 21 mph 51% 0 in
08:04 59 °F 40.8 °F 29.9 in ONO 11.4 mph 20.7 mph 51% 0 in
08:09 58.8 °F 40.8 °F 29.9 in ONO 10.5 mph 21 mph 51.3% 0 in
08:14 58.6 °F 41.2 °F 29.9 in Oeste 9.7 mph 20.8 mph 52% 0 in
08:19 58.8 °F 41 °F 29.9 in Oeste 10.3 mph 21.3 mph 51.7% 0 in
08:24 59 °F 40.8 °F 29.9 in ONO 10.7 mph 21 mph 51% 0 in
08:29 58.8 °F 41 °F 29.9 in ONO 10.4 mph 19 mph 51.5% 0 in
08:34 58.6 °F 41.2 °F 29.9 in ONO 10.2 mph 22.3 mph 52% 0 in
08:39 58.6 °F 41.2 °F 29.9 in ONO 10.1 mph 22 mph 52% 0 in
08:44 58.6 °F 41.2 °F 29.9 in ONO 10 mph 17 mph 52% 0 in
08:49 58.6 °F 41.2 °F 29.9 in ONO 8.7 mph 14 mph 52% 0 in
08:54 58.8 °F 41.2 °F 29.9 in ONO 7.6 mph 16.3 mph 52% 0 in
08:59 59.2 °F 41 °F 29.9 in ONO 7.6 mph 16 mph 51.1% 0 in
09:04 59.2 °F 41.2 °F 29.9 in ONO 7.6 mph 14 mph 51% 0 in
09:09 59.2 °F 41.2 °F 29.9 in ONO 8.1 mph 14 mph 51% 0 in
09:14 59.2 °F 41.2 °F 29.9 in ONO 8.5 mph 14 mph 51% 0 in
09:19 59.4 °F 41.2 °F 29.9 in Oeste 7.1 mph 15.2 mph 51% 0 in
09:24 59.5 °F 41.4 °F 29.9 in ONO 5.9 mph 15 mph 51% 0 in
09:29 59.5 °F 41.4 °F 29.9 in Oeste 6.2 mph 12 mph 51% 0 in
09:34 59.5 °F 41.5 °F 29.9 in Oeste 6.4 mph 10.7 mph 51% 0 in
09:39 59.7 °F 41.5 °F 29.9 in ONO 6.2 mph 11 mph 50.8% 0 in
09:44 60.1 °F 41.5 °F 29.9 in Oeste 5.9 mph 15 mph 50.2% 0 in
09:49 60.3 °F 41.4 °F 29.9 in Oeste 6.4 mph 16.3 mph 49.6% 0 in
09:54 60.6 °F 41.4 °F 29.9 in ONO 6.9 mph 16 mph 49% 0 in
09:59 60.8 °F 41.5 °F 29.9 in ONO 8 mph 14.7 mph 49% 0 in
10:04 61 °F 41.7 °F 29.9 in ONO 8.7 mph 15 mph 48.9% 0 in
10:09 61.2 °F 41.4 °F 29.9 in ONO 9.4 mph 18.4 mph 48.3% 0 in
10:14 61.3 °F 41.5 °F 29.9 in ONO 10 mph 18.4 mph 48.2% 0 in
10:19 61.3 °F 41.5 °F 29.9 in ONO 10.4 mph 18 mph 48% 0 in
10:24 61.5 °F 41.4 °F 29.9 in ONO 10.7 mph 17.5 mph 47.7% 0 in
10:29 61.7 °F 41.4 °F 29.9 in ONO 10.4 mph 17 mph 47% 0 in
10:34 62.1 °F 41.5 °F 30 in ONO 10.2 mph 17.3 mph 47% 0 in
10:39 62.1 °F 41.5 °F 30 in Oeste 9.4 mph 24.6 mph 46.8% 0 in
10:44 62.2 °F 41.2 °F 30 in ONO 8.7 mph 25 mph 46% 0 in
10:49 62.4 °F 41 °F 30 in ONO 10.2 mph 24 mph 45.2% 0 in
10:54 62.6 °F 40.8 °F 30 in ONO 11.4 mph 21 mph 45% 0 in
10:59 62.8 °F 41.2 °F 30 in ONO 12.1 mph 24.2 mph 45% 0 in
11:04 63 °F 41.2 °F 30 in ONO 12.5 mph 24 mph 44.8% 0 in
11:09 63.1 °F 41.2 °F 30 in ONO 11.7 mph 22 mph 44.5% 0 in
11:14 63.3 °F 41 °F 30 in ONO 11.2 mph 24.6 mph 43.9% 0 in
11:19 63.5 °F 41 °F 30 in ONO 11.3 mph 25 mph 43.9% 0 in
11:24 63.7 °F 40.8 °F 30 in ONO 11.4 mph 23 mph 43.1% 0 in
11:29 63.7 °F 40.8 °F 30 in ONO 12.6 mph 24.2 mph 43% 0 in
11:34 63.9 °F 40.6 °F 30 in ONO 13.5 mph 27.6 mph 42.7% 0 in
11:39 64 °F 41 °F 30 in ONO 14.5 mph 28 mph 43% 0 in
11:44 64.2 °F 40.8 °F 30 in ONO 15.2 mph 29.9 mph 42.2% 0 in
11:49 64.6 °F 40.6 °F 30 in ONO 14.3 mph 30 mph 41.6% 0 in
11:54 64.6 °F 40.3 °F 30 in NO 13.5 mph 28 mph 41% 0 in
11:59 64.8 °F 40.1 °F 30 in ONO 15.5 mph 29.9 mph 40.5% 0 in
12:04 64.9 °F 40.1 °F 30 in NO 16.8 mph 30 mph 40.4% 0 in
12:09 64.9 °F 40.1 °F 30 in ONO 16.8 mph 26 mph 40% 0 in
12:14 65.1 °F 40.1 °F 30 in ONO 16.8 mph 25.3 mph 40% 0 in
12:19 65.1 °F 40.1 °F 30 in ONO 16.5 mph 26.8 mph 39.9% 0 in
12:24 65.3 °F 40.1 °F 30 in ONO 16.3 mph 27 mph 39.8% 0 in
12:29 65.7 °F 40.1 °F 30 in ONO 15.4 mph 25 mph 39.3% 0 in
12:34 65.7 °F 39.9 °F 30 in ONO 14.7 mph 25.6 mph 39% 0 in
12:39 65.8 °F 40.1 °F 29.9 in ONO 14.2 mph 26.5 mph 39% 0 in
12:44 65.8 °F 40.3 °F 29.9 in NO 13.7 mph 29.4 mph 39% 0 in
12:49 66 °F 39.7 °F 29.9 in ONO 14.1 mph 30 mph 38.3% 0 in
12:54 66 °F 39.7 °F 29.9 in ONO 14.5 mph 23.5 mph 38.2% 0 in
12:59 66.2 °F 39.9 °F 29.9 in Oeste 14 mph 23 mph 38% 0 in
13:04 66.6 °F 39.7 °F 29.9 in ONO 13.7 mph 23.5 mph 37.3% 0 in
13:09 66.7 °F 39.6 °F 29.9 in ONO 12.9 mph 23 mph 37% 0 in
13:14 66.9 °F 39.7 °F 29.9 in ONO 12.3 mph 27.6 mph 37% 0 in
13:19 66.7 °F 39.6 °F 29.9 in ONO 13.2 mph 28 mph 37% 0 in
13:24 66.9 °F 39.7 °F 29.9 in NO 14 mph 26 mph 37% 0 in
13:29 66.9 °F 39.7 °F 29.9 in ONO 13.9 mph 24.2 mph 37% 0 in
13:34 67.3 °F 40.1 °F 29.9 in NO 13.7 mph 24 mph 37% 0 in
13:39 67.1 °F 39.9 °F 29.9 in ONO 13.9 mph 25.3 mph 37% 0 in
13:44 66.9 °F 39.9 °F 29.9 in ONO 14 mph 26.5 mph 37% 0 in
13:49 66.9 °F 39.7 °F 29.9 in ONO 15.1 mph 29.4 mph 37% 0 in
13:54 66.9 °F 39.7 °F 29.9 in Oeste 15.9 mph 29 mph 37% 0 in
13:59 67.3 °F 39.9 °F 29.9 in ONO 16.5 mph 26.8 mph 36.6% 0 in
14:04 67.3 °F 40.1 °F 29.9 in NO 16.8 mph 27 mph 37% 0 in
14:09 67.5 °F 39.7 °F 29.9 in ONO 16.8 mph 29.1 mph 36.1% 0 in
14:14 67.5 °F 39.6 °F 29.9 in NO 16.8 mph 29 mph 36% 0 in
14:19 67.8 °F 39.9 °F 29.9 in NO 15.3 mph 28 mph 36% 0 in
14:24 67.8 °F 39.9 °F 29.9 in NO 14 mph 26.1 mph 36% 0 in
14:29 67.8 °F 39.9 °F 29.9 in NO 14.2 mph 26.5 mph 36% 0 in
14:34 67.8 °F 39.9 °F 29.9 in NO 14.5 mph 29.9 mph 36% 0 in
14:39 67.8 °F 39.9 °F 29.9 in ONO 13.7 mph 30 mph 36% 0 in
14:44 67.8 °F 40.1 °F 29.9 in ONO 13 mph 24.6 mph 36.3% 0 in
14:49 67.8 °F 40.5 °F 29.9 in ONO 12.6 mph 25.6 mph 36.9% 0 in
14:54 67.6 °F 40.3 °F 29.9 in ONO 12.3 mph 26 mph 36.7% 0 in
14:59 67.6 °F 40.5 °F 29.9 in ONO 12.4 mph 25.3 mph 37% 0 in
15:04 67.5 °F 40.5 °F 29.9 in ONO 12.5 mph 25 mph 37.2% 0 in
15:09 67.5 °F 40.6 °F 29.9 in ONO 12.8 mph 25 mph 37.5% 0 in
15:14 67.5 °F 40.8 °F 29.9 in ONO 13 mph 22.5 mph 37.7% 0 in
15:19 67.5 °F 40.8 °F 29.9 in ONO 13.5 mph 25.6 mph 37.8% 0 in
15:24 67.5 °F 40.8 °F 29.9 in ONO 14 mph 26.8 mph 37.9% 0 in
15:29 67.5 °F 40.8 °F 29.9 in ONO 14.6 mph 27 mph 38% 0 in
15:34 67.5 °F 41 °F 29.9 in ONO 15.2 mph 26 mph 38% 0 in
15:39 67.5 °F 41 °F 29.9 in ONO 15.2 mph 25.3 mph 38% 0 in
15:44 67.5 °F 41 °F 29.9 in NO 15.2 mph 25 mph 38% 0 in
15:49 67.6 °F 41 °F 29.9 in ONO 14 mph 24.2 mph 37.9% 0 in
15:54 67.6 °F 41.2 °F 29.9 in ONO 13 mph 24 mph 38% 0 in
15:59 67.8 °F 41.2 °F 29.9 in ONO 13.3 mph 25.3 mph 38% 0 in
16:04 67.6 °F 40.8 °F 29.9 in ONO 13.5 mph 26.3 mph 37.5% 0 in
16:09 67.5 °F 41 °F 29.9 in ONO 13.8 mph 26 mph 38% 0 in
16:14 67.5 °F 41 °F 29.9 in Oeste 14 mph 21 mph 38% 0 in
16:19 67.6 °F 41.2 °F 29.9 in Oeste 12.9 mph 23 mph 38% 0 in
16:24 67.8 °F 41.2 °F 29.9 in Oeste 11.8 mph 23 mph 38% 0 in
16:29 67.6 °F 41 °F 29.9 in ONO 12.1 mph 21.3 mph 38% 0 in
16:34 67.5 °F 41 °F 29.9 in Oeste 12.3 mph 25.3 mph 38% 0 in
16:39 67.5 °F 41 °F 29.9 in Oeste 12.9 mph 25 mph 38% 0 in
16:44 67.6 °F 41 °F 29.9 in Oeste 13.5 mph 22.5 mph 38% 0 in
16:49 67.6 °F 41.2 °F 29.9 in Oeste 12.2 mph 24.2 mph 38% 0 in
16:54 67.8 °F 41.4 °F 29.9 in Oeste 11.2 mph 24 mph 38% 0 in
16:59 68 °F 41 °F 29.9 in Oeste 10.3 mph 22.3 mph 37.5% 0 in
17:04 68.2 °F 40.8 °F 29.9 in Oeste 9.7 mph 22 mph 37% 0 in
17:09 68.2 °F 40.8 °F 29.9 in Oeste 9.9 mph 22 mph 37% 0 in
17:14 68.2 °F 40.8 °F 29.9 in ONO 10 mph 18 mph 37% 0 in
17:19 68.2 °F 40.8 °F 29.9 in Oeste 9 mph 17 mph 37% 0 in
17:24 68.2 °F 40.8 °F 29.9 in Oeste 8.1 mph 15 mph 37% 0 in
17:29 68.2 °F 40.8 °F 29.9 in Oeste 7.8 mph 18.4 mph 37% 0 in
17:34 68.2 °F 40.8 °F 29.9 in Oeste 7.6 mph 18 mph 37% 0 in
17:39 68 °F 40.6 °F 29.9 in Oeste 7.6 mph 17.3 mph 37% 0 in
17:44 67.8 °F 40.6 °F 29.9 in Oeste 7.6 mph 19.7 mph 37% 0 in
17:49 67.8 °F 40.6 °F 29.9 in Oeste 8.7 mph 21.3 mph 37% 0 in
17:54 67.6 °F 40.5 °F 29.9 in Oeste 9.7 mph 21 mph 37% 0 in
17:59 67.5 °F 40.3 °F 29.9 in Oeste 10.7 mph 19 mph 37% 0 in
18:04 67.5 °F 40.3 °F 29.9 in Oeste 11.4 mph 18.4 mph 37% 0 in
18:09 67.3 °F 40.1 °F 29.9 in Oeste 10 mph 18 mph 37% 0 in
18:14 67.1 °F 40.6 °F 29.9 in OSO 8.7 mph 16 mph 38% 0 in
18:19 66.9 °F 40.5 °F 29.9 in OSO 8 mph 15 mph 37.9% 0 in
18:24 66.7 °F 40.5 °F 29.9 in OSO 7.4 mph 15 mph 38% 0 in
18:29 66.6 °F 40.1 °F 29.9 in Oeste 6.6 mph 11.5 mph 38% 0 in
18:34 66.6 °F 40.1 °F 29.9 in Oeste 5.9 mph 12 mph 38% 0 in
18:39 66.4 °F 40.5 °F 29.9 in Oeste 5.7 mph 10 mph 38.8% 0 in
18:44 66 °F 40.3 °F 29.9 in Oeste 5.4 mph 13.8 mph 39% 0 in
18:49 66 °F 40.3 °F 29.9 in Oeste 5.8 mph 14 mph 39% 0 in
18:54 65.8 °F 40.3 °F 29.9 in Oeste 6.2 mph 13 mph 39% 0 in
18:59 65.8 °F 40.3 °F 29.9 in Oeste 6.3 mph 14.7 mph 39% 0 in
19:04 65.8 °F 40.3 °F 29.9 in Oeste 6.4 mph 15 mph 39% 0 in
19:09 65.8 °F 40.3 °F 29.9 in Oeste 6.3 mph 13.7 mph 39% 0 in
19:14 65.8 °F 40.3 °F 29.9 in OSO 6.2 mph 15.2 mph 39% 0 in
19:19 66 °F 40.3 °F 29.9 in OSO 6.6 mph 15 mph 39% 0 in
19:24 66 °F 40.3 °F 29.9 in SO 6.9 mph 13 mph 39% 0 in
19:29 65.8 °F 40.5 °F 29.9 in SSO 6.6 mph 13 mph 39.2% 0 in
19:34 65.5 °F 40.5 °F 29.9 in SO 6.4 mph 12.5 mph 40% 0 in
19:39 65.1 °F 40.3 °F 29.9 in SO 7 mph 13 mph 40.1% 0 in
19:44 64.9 °F 40.5 °F 29.9 in OSO 7.4 mph 13 mph 40.7% 0 in
19:49 64.8 °F 40.5 °F 30 in OSO 6.8 mph 11 mph 41% 0 in
19:54 64.8 °F 40.5 °F 30 in SO 6.2 mph 10 mph 41% 0 in
19:59 64.8 °F 40.5 °F 30 in Sur 5.7 mph 9 mph 41% 0 in
20:04 64.6 °F 40.3 °F 30 in SSO 5.4 mph 10.4 mph 41.1% 0 in
20:09 64.2 °F 40.6 °F 30 in SSO 5.4 mph 10.4 mph 42% 0 in
20:14 64.2 °F 40.6 °F 30 in SO 5.4 mph 10.7 mph 42% 0 in
20:19 64.2 °F 40.6 °F 30 in SO 6.2 mph 11 mph 42% 0 in
20:24 64 °F 40.5 °F 30 in SO 6.9 mph 11 mph 42% 0 in
20:29 64 °F 40.5 °F 30 in SO 6.4 mph 9.2 mph 42% 0 in
20:34 64 °F 40.5 °F 30 in SO 5.9 mph 9 mph 42% 0 in
20:39 64 °F 40.5 °F 30 in SO 5.7 mph 8.7 mph 42% 0 in
20:44 64 °F 40.5 °F 30 in OSO 5.4 mph 9.2 mph 42% 0 in
20:49 64 °F 40.5 °F 30 in OSO 5.4 mph 9.7 mph 42% 0 in
20:54 63.9 °F 40.3 °F 30 in OSO 5.4 mph 10 mph 42% 0 in
20:59 63.7 °F 40.1 °F 30 in SO 5.3 mph 9 mph 42% 0 in
21:04 63.7 °F 40.3 °F 30 in SSO 5.2 mph 8.1 mph 42.2% 0 in
21:09 63.3 °F 40.6 °F 30 in Sur 4.9 mph 8.1 mph 43.2% 0 in
21:14 62.6 °F 40.6 °F 30 in SSO 4.7 mph 10.4 mph 44.4% 0 in
21:19 62.1 °F 40.5 °F 30 in SSO 5.6 mph 10.4 mph 45% 0 in
21:24 62.1 °F 40.5 °F 30 in SSO 6.4 mph 10 mph 45% 0 in
21:29 62.1 °F 40.5 °F 30 in SO 6.2 mph 10 mph 45% 0 in
21:34 61.9 °F 40.6 °F 30 in SO 5.9 mph 8.1 mph 45.6% 0 in
21:39 61.9 °F 40.8 °F 30 in SO 5.5 mph 8.5 mph 45.9% 0 in
21:44 61.9 °F 40.3 °F 30 in SO 5.2 mph 9 mph 45.1% 0 in
21:49 61.9 °F 40.8 °F 30 in SO 5.2 mph 9.2 mph 45.9% 0 in
21:54 61.9 °F 40.5 °F 30 in SO 5.2 mph 9.2 mph 45.4% 0 in
21:59 61.7 °F 40.6 °F 30 in SSO 5.2 mph 9.2 mph 46% 0 in
22:04 61.3 °F 40.5 °F 30 in SSO 5.2 mph 8.1 mph 46% 0 in
22:09 61.2 °F 40.3 °F 30 in SO 4.7 mph 9.7 mph 46% 0 in
22:14 61.2 °F 40.3 °F 30 in SO 4.3 mph 10 mph 46% 0 in
22:19 61.2 °F 40.3 °F 30 in SO 4.8 mph 9 mph 46% 0 in
22:24 61.2 °F 40.3 °F 30 in Oeste 5.4 mph 8 mph 46% 0 in
22:29 61.2 °F 40.3 °F 30 in SO 4.5 mph 6.9 mph 46% 0 in
22:34 61.3 °F 40.5 °F 30 in SSO 3.6 mph 7 mph 46% 0 in
22:39 61.2 °F 40.3 °F 30 in Sur 3.8 mph 8.5 mph 46.4% 0 in
22:44 60.6 °F 40.3 °F 30 in SSO 4 mph 9.2 mph 47% 0 in
22:49 60.4 °F 40.1 °F 30 in SSO 5.2 mph 9.2 mph 47% 0 in
22:54 60.4 °F 40.1 °F 30 in SO 6.2 mph 10.4 mph 47% 0 in
22:59 60.8 °F 39.9 °F 30 in OSO 6.3 mph 11.8 mph 46.1% 0 in
23:04 61.3 °F 39.7 °F 30 in OSO 6.4 mph 12 mph 45% 0 in
23:09 61.5 °F 39.9 °F 30 in OSO 6.3 mph 12 mph 45% 0 in
23:14 61.3 °F 39.9 °F 30 in Oeste 6.2 mph 9.2 mph 45% 0 in
23:19 61.2 °F 39.6 °F 30 in OSO 5.8 mph 10 mph 45% 0 in
23:24 61.2 °F 39.6 °F 30 in Oeste 5.4 mph 10.4 mph 45% 0 in
23:29 61.2 °F 39.4 °F 30 in Oeste 5.7 mph 10 mph 44.4% 0 in
23:34 61.3 °F 39.2 °F 30 in OSO 5.9 mph 9.2 mph 44% 0 in
23:39 61.3 °F 39.2 °F 30 in OSO 5.3 mph 9.2 mph 44% 0 in
23:44 61.3 °F 39.2 °F 30 in OSO 4.7 mph 7 mph 44% 0 in
23:49 61.2 °F 39.4 °F 30 in SSO 4.1 mph 6.2 mph 44.7% 0 in
23:54 61 °F 39.4 °F 30 in SSO 3.6 mph 6.9 mph 45% 0 in
23:59 60.6 °F 39.2 °F 30 in SO 3.9 mph 9.2 mph 45% 0 in
Murcia-Puente Tocinos, España
Compliments of Weather Underground - 3 mb

La estación de MeteoMurcia.com, publica sus datos en los siguientes proyectos:

Weather Underground PWS IMURCIAP2 Meteoclimatic www.awekas.at

W3Counter
Web Analytics